Time;durP1;ratioP1;P1;durP2;ratioP2;P2;SDS_P1;SDS_P2;PMS_P1;PMS_P2;Temp;Humidity;BMP_temperature;BMP_pressure;BME280_temperature;BME280_humidity;BME280_pressure;Samples;Min_cycle;Max_cycle;Signal;HPM_P1;HPM_P2
2023/02/13 00:02:38;;;;;;;53.30;28.80;;;;;;;;;;6325873;28;20063;-73
2023/02/13 00:05:40;;;;;;;53.13;28.35;;;;;;;;;;6330007;27;20097;-73
2023/02/13 00:08:43;;;;;;;56.55;29.02;;;;;;;;;;6325629;28;20098;-73
2023/02/13 00:11:45;;;;;;;54.45;28.73;;;;;;;;;;6330269;27;20052;-74
2023/02/13 00:14:46;;;;;;;52.28;28.75;;;;;;;;;;6326956;28;20048;-74
2023/02/13 00:17:48;;;;;;;51.90;29.02;;;;;;;;;;6323706;27;20063;-74
2023/02/13 00:20:57;;;;;;;50.10;28.60;;;;;;;;;;6326501;28;20121;-74
2023/02/13 00:24:00;;;;;;;57.40;29.00;;;;;;;;;;6325504;28;20102;-74
2023/02/13 00:27:02;;;;;;;50.65;28.60;;;;;;;;;;6326265;28;20081;-74
2023/02/13 00:30:04;;;;;;;57.17;29.98;;;;;;;;;;6329026;28;20055;-73
2023/02/13 00:33:06;;;;;;;52.63;30.35;;;;;;;;;;6327157;28;20055;-74
2023/02/13 00:36:10;;;;;;;52.47;30.02;;;;;;;;;;6323937;28;20743;-73
2023/02/13 00:39:13;;;;;;;;;;;;;;;;;;6324703;28;20043;-73
2023/02/13 00:42:15;;;;;;;50.70;28.05;;;;;;;;;;6323585;28;19923;-74
2023/02/13 00:45:16;;;;;;;50.90;29.83;;;;;;;;;;6326013;27;20055;-73
2023/02/13 00:48:18;;;;;;;52.05;28.92;;;;;;;;;;6325376;28;20060;-73
2023/02/13 00:51:20;;;;;;;59.35;31.73;;;;;;;;;;6326809;28;20086;-74
2023/02/13 00:54:23;;;;;;;53.90;30.55;;;;;;;;;;6319328;28;20067;-74
2023/02/13 00:57:24;;;;;;;52.55;29.45;;;;;;;;;;6325921;28;20217;-74
2023/02/13 01:00:26;;;;;;;53.67;29.85;;;;;;;;;;6324672;28;20056;-73
2023/02/13 01:03:28;;;;;;;53.25;30.73;;;;;;;;;;6319241;28;20416;-74
2023/02/13 01:06:29;;;;;;;54.47;29.83;;;;;;;;;;6323383;27;20383;-74
2023/02/13 01:09:32;;;;;;;54.95;30.50;;;;;;;;;;6328111;28;20339;-73
2023/02/13 01:12:34;;;;;;;53.30;30.38;;;;;;;;;;6322596;28;20052;-74
2023/02/13 01:15:37;;;;;;;50.33;29.70;;;;;;;;;;6327871;28;20279;-74
2023/02/13 01:18:39;;;;;;;53.20;29.52;;;;;;;;;;6319595;28;20048;-74
2023/02/13 01:21:40;;;;;;;55.78;30.75;;;;;;;;;;6327285;28;20328;-74
2023/02/13 01:24:43;;;;;;;51.42;28.95;;;;;;;;;;6323473;28;20043;-73
2023/02/13 01:27:45;;;;;;;54.38;30.45;;;;;;;;;;6326541;27;20049;-74
2023/02/13 01:30:53;;;;;;;52.53;30.40;;;;;;;;;;6322520;28;20835;-74
2023/02/13 01:33:56;;;;;;;56.63;30.95;;;;;;;;;;6326399;27;20051;-74
2023/02/13 01:36:58;;;;;;;53.00;30.07;;;;;;;;;;6324342;28;20054;-74
2023/02/13 01:40:01;;;;;;;54.40;29.52;;;;;;;;;;6323330;28;20056;-74
2023/02/13 01:43:02;;;;;;;52.80;30.45;;;;;;;;;;6324335;28;22109;-74
2023/02/13 01:46:04;;;;;;;51.88;29.45;;;;;;;;;;6322429;27;20048;-74
2023/02/13 01:49:12;;;;;;;57.20;30.27;;;;;;;;;;6324253;27;20097;-74
2023/02/13 01:52:14;;;;;;;57.03;29.48;;;;;;;;;;6327583;28;20052;-74
2023/02/13 01:55:17;;;;;;;52.50;28.30;;;;;;;;;;6325006;28;20056;-74
2023/02/13 01:58:23;;;;;;;55.83;29.55;;;;;;;;;;6323028;27;20047;-74
2023/02/13 02:01:25;;;;;;;54.78;28.88;;;;;;;;;;6321571;28;20043;-74
2023/02/13 02:04:30;;;;;;;52.33;30.13;;;;;;;;;;6324007;28;20051;-74
2023/02/13 02:07:33;;;;;;;55.92;30.58;;;;;;;;;;6323392;27;20149;-74
2023/02/13 02:10:36;;;;;;;52.03;29.50;;;;;;;;;;6321691;28;20048;-74
2023/02/13 02:13:38;;;;;;;58.17;30.30;;;;;;;;;;6323868;28;20055;-74
2023/02/13 02:16:40;;;;;;;53.42;29.70;;;;;;;;;;6323013;27;20436;-74
2023/02/13 02:19:47;;;;;;;56.75;30.08;;;;;;;;;;6325865;28;20062;-73
2023/02/13 02:23:11;;;;;;;48.85;29.17;;;;;;;;;;6325439;27;20047;-73
2023/02/13 02:26:49;;;;;;;57.10;29.53;;;;;;;;;;6321243;28;20047;-74
2023/02/13 02:30:16;;;;;;;51.20;29.27;;;;;;;;;;6324500;28;20047;-74
2023/02/13 02:33:26;;;;;;;50.58;27.92;;;;;;;;;;6321551;27;20155;-74
2023/02/13 02:36:37;;;;;;;53.88;27.50;;;;;;;;;;6320833;28;20261;-74
2023/02/13 02:39:45;;;;;;;50.78;29.15;;;;;;;;;;6322410;28;20100;-74
2023/02/13 02:42:58;;;;;;;51.70;28.98;;;;;;;;;;6320825;28;20056;-74
2023/02/13 02:46:06;;;;;;;55.35;30.00;;;;;;;;;;6324084;28;20348;-74
2023/02/13 02:52:41;;;;;;;49.35;28.13;;;;;;;;;;6322555;28;20232;-74
2023/02/13 02:55:47;;;;;;;52.03;28.40;;;;;;;;;;6319510;28;20064;-74
2023/02/13 03:22:58;;;;;;;53.30;28.75;;;;;;;;;;6251440;28;20049;-74
2023/02/13 03:26:13;;;;;;;51.60;28.83;;;;;;;;;;6251363;28;20061;-74
2023/02/13 03:32:45;;;;;;;55.83;29.70;;;;;;;;;;6254863;28;20053;-74
2023/02/13 03:39:15;;;;;;;48.92;27.92;;;;;;;;;;6249897;28;20069;-74
2023/02/13 03:42:24;;;;;;;51.00;29.95;;;;;;;;;;6248404;28;20045;-74
2023/02/13 03:52:11;;;;;;;53.97;30.70;;;;;;;;;;6329407;28;20052;-74
2023/02/13 04:02:04;;;;;;;53.30;29.65;;;;;;;;;;6328179;28;20707;-74
2023/02/13 04:05:08;;;;;;;55.20;30.52;;;;;;;;;;6327935;28;20089;-74
2023/02/13 04:08:10;;;;;;;52.83;30.08;;;;;;;;;;6323338;28;20324;-74
2023/02/13 04:11:15;;;;;;;52.90;30.38;;;;;;;;;;6326548;28;20215;-74
2023/02/13 04:14:21;;;;;;;50.83;29.10;;;;;;;;;;6328065;28;20050;-74
2023/02/13 04:17:27;;;;;;;53.08;29.67;;;;;;;;;;6325679;27;20059;-73
2023/02/13 04:20:29;;;;;;;48.17;28.38;;;;;;;;;;6325695;27;20044;-73
2023/02/13 04:23:30;;;;;;;53.35;30.63;;;;;;;;;;6325792;28;20232;-74
2023/02/13 04:26:36;;;;;;;52.00;28.15;;;;;;;;;;6326374;28;20076;-73
2023/02/13 04:29:38;;;;;;;51.40;29.50;;;;;;;;;;6326046;28;20048;-74
2023/02/13 04:32:39;;;;;;;52.03;29.17;;;;;;;;;;6326802;28;20044;-74
2023/02/13 04:35:41;;;;;;;54.38;28.92;;;;;;;;;;6326294;28;20040;-74
2023/02/13 04:38:44;;;;;;;51.63;27.90;;;;;;;;;;6326123;28;20055;-74
2023/02/13 04:41:47;;;;;;;49.78;27.45;;;;;;;;;;6327299;27;20051;-74
2023/02/13 04:44:48;;;;;;;55.47;28.35;;;;;;;;;;6322982;27;20043;-74
2023/02/13 04:47:51;;;;;;;50.47;28.02;;;;;;;;;;6324382;28;20078;-74
2023/02/13 04:50:53;;;;;;;49.85;27.48;;;;;;;;;;6325059;28;20354;-74
2023/02/13 04:53:54;;;;;;;49.72;26.83;;;;;;;;;;6324716;27;20051;-73
2023/02/13 04:56:57;;;;;;;48.30;27.83;;;;;;;;;;6324774;28;20132;-74
2023/02/13 04:59:59;;;;;;;50.83;27.65;;;;;;;;;;6325611;27;20360;-74
2023/02/13 05:03:05;;;;;;;51.33;27.55;;;;;;;;;;6322393;28;20126;-74
2023/02/13 05:06:07;;;;;;;47.78;27.48;;;;;;;;;;6326074;28;20716;-73
2023/02/13 05:09:09;;;;;;;48.97;26.90;;;;;;;;;;6324862;28;20059;-74
2023/02/13 05:12:12;;;;;;;53.95;28.35;;;;;;;;;;6322011;28;20044;-74
2023/02/13 05:15:14;;;;;;;50.63;27.10;;;;;;;;;;6325876;27;20262;-71
2023/02/13 05:18:16;;;;;;;54.60;29.42;;;;;;;;;;6325687;28;20059;-74
2023/02/13 05:24:36;;;;;;;55.25;28.20;;;;;;;;;;6324910;27;20332;-73
2023/02/13 05:27:39;;;;;;;49.28;27.13;;;;;;;;;;6324797;28;20051;-73
2023/02/13 05:30:40;;;;;;;51.53;28.10;;;;;;;;;;6319600;28;20089;-73
2023/02/13 05:33:42;;;;;;;49.88;26.17;;;;;;;;;;6320927;28;20516;-74
2023/02/13 05:36:43;;;;;;;52.78;27.95;;;;;;;;;;6324914;28;20047;-73
2023/02/13 05:39:45;;;;;;;50.00;28.23;;;;;;;;;;6325882;28;20067;-74
2023/02/13 05:42:48;;;;;;;48.35;27.65;;;;;;;;;;6324277;27;20128;-71
2023/02/13 05:45:51;;;;;;;47.92;26.27;;;;;;;;;;6326623;28;20108;-74
2023/02/13 05:48:52;;;;;;;49.22;27.33;;;;;;;;;;6322706;28;20070;-74
2023/02/13 05:51:54;;;;;;;47.28;26.65;;;;;;;;;;6325696;28;20056;-74
2023/02/13 05:54:56;;;;;;;51.20;27.35;;;;;;;;;;6322605;27;20052;-73
2023/02/13 05:57:59;;;;;;;51.05;27.50;;;;;;;;;;6321249;28;20058;-73
2023/02/13 06:01:01;;;;;;;46.90;26.83;;;;;;;;;;6322000;28;20056;-74
2023/02/13 06:04:02;;;;;;;50.72;27.33;;;;;;;;;;6324361;28;20401;-74
2023/02/13 06:07:04;;;;;;;48.47;26.83;;;;;;;;;;6322683;28;20040;-72
2023/02/13 06:10:07;;;;;;;50.08;27.75;;;;;;;;;;6323074;27;20055;-74
2023/02/13 06:13:10;;;;;;;48.75;26.42;;;;;;;;;;6321326;27;20044;-74
2023/02/13 06:16:12;;;;;;;47.45;26.73;;;;;;;;;;6324075;28;20090;-75
2023/02/13 06:19:14;;;;;;;47.03;27.48;;;;;;;;;;6326783;28;20056;-73
2023/02/13 06:22:15;;;;;;;49.95;26.60;;;;;;;;;;6318305;28;20059;-73
2023/02/13 06:25:17;;;;;;;51.63;28.67;;;;;;;;;;6321218;28;20116;-73
2023/02/13 06:28:20;;;;;;;45.08;27.00;;;;;;;;;;6324747;27;20051;-73
2023/02/13 06:31:23;;;;;;;54.30;27.88;;;;;;;;;;6323404;27;20063;-73
2023/02/13 06:34:25;;;;;;;48.13;27.67;;;;;;;;;;6323348;27;20043;-73
2023/02/13 06:37:27;;;;;;;54.55;28.63;;;;;;;;;;6324721;28;20059;-73
2023/02/13 06:40:28;;;;;;;55.00;26.27;;;;;;;;;;6325473;27;20058;-73
2023/02/13 06:43:31;;;;;;;51.97;26.58;;;;;;;;;;6320870;28;20048;-73
2023/02/13 06:46:33;;;;;;;48.80;25.55;;;;;;;;;;6322520;28;20040;-73
2023/02/13 06:49:35;;;;;;;42.58;25.20;;;;;;;;;;6325436;28;20043;-73
2023/02/13 06:52:36;;;;;;;46.75;24.95;;;;;;;;;;6321804;28;20051;-73
2023/02/13 06:55:38;;;;;;;47.83;26.38;;;;;;;;;;6320917;28;20052;-72
2023/02/13 06:58:41;;;;;;;46.40;25.98;;;;;;;;;;6322194;28;20040;-73
2023/02/13 07:01:43;;;;;;;50.75;26.75;;;;;;;;;;6321341;27;20056;-73
2023/02/13 07:04:45;;;;;;;47.10;25.95;;;;;;;;;;6323336;27;20101;-73
2023/02/13 07:07:46;;;;;;;46.78;25.08;;;;;;;;;;6325057;28;20052;-73
2023/02/13 07:10:48;;;;;;;45.90;25.50;;;;;;;;;;6323449;28;20055;-73
2023/02/13 07:13:51;;;;;;;44.63;25.60;;;;;;;;;;6317434;28;20363;-73
2023/02/13 07:16:53;;;;;;;47.10;26.23;;;;;;;;;;6325536;27;20043;-72
2023/02/13 07:19:54;;;;;;;44.03;26.17;;;;;;;;;;6323337;28;20231;-71
2023/02/13 07:22:58;;;;;;;45.90;24.77;;;;;;;;;;6318166;27;20121;-72
2023/02/13 07:26:00;;;;;;;44.35;24.73;;;;;;;;;;6327312;27;20079;-72
2023/02/13 07:29:04;;;;;;;48.95;27.95;;;;;;;;;;6320131;27;20151;-72
2023/02/13 07:32:07;;;;;;;51.83;28.17;;;;;;;;;;6326286;28;20079;-72
2023/02/13 07:35:09;;;;;;;47.70;27.92;;;;;;;;;;6321989;28;20223;-72
2023/02/13 07:38:11;;;;;;;50.75;27.40;;;;;;;;;;6323647;28;20044;-72
2023/02/13 07:41:12;;;;;;;49.95;29.38;;;;;;;;;;6322100;27;20390;-72
2023/02/13 07:44:15;;;;;;;55.88;30.70;;;;;;;;;;6322935;28;20401;-72
2023/02/13 07:47:17;;;;;;;54.72;30.27;;;;;;;;;;6320079;28;20094;-72
2023/02/13 07:50:19;;;;;;;51.38;30.80;;;;;;;;;;6320192;27;20064;-72
2023/02/13 07:53:21;;;;;;;56.85;32.22;;;;;;;;;;6324258;27;20048;-72
2023/02/13 07:56:23;;;;;;;61.40;31.33;;;;;;;;;;6326689;28;20060;-72
2023/02/13 07:59:26;;;;;;;58.47;32.75;;;;;;;;;;6330323;28;20052;-72
2023/02/13 08:02:27;;;;;;;56.13;31.40;;;;;;;;;;6326640;27;20365;-72
2023/02/13 08:05:29;;;;;;;60.28;33.25;;;;;;;;;;6327799;28;20040;-72
2023/02/13 08:08:31;;;;;;;50.35;31.02;;;;;;;;;;6326798;28;20048;-72
2023/02/13 08:14:54;;;;;;;54.63;33.08;;;;;;;;;;6325400;28;20060;-72
2023/02/13 08:17:56;;;;;;;57.70;33.10;;;;;;;;;;6326110;28;20055;-73
2023/02/13 08:20:58;;;;;;;56.88;32.88;;;;;;;;;;6326473;28;20062;-72
2023/02/13 08:23:59;;;;;;;58.70;34.67;;;;;;;;;;6327086;27;20052;-72
2023/02/13 08:27:01;;;;;;;60.38;34.47;;;;;;;;;;6328225;28;20067;-73
2023/02/13 08:30:05;;;;;;;62.25;36.22;;;;;;;;;;6327650;28;20047;-72
2023/02/13 08:33:07;;;;;;;;;;;;;;;;;;6327790;28;20133;-72
2023/02/13 08:36:09;;;;;;;58.60;34.97;;;;;;;;;;6325419;28;20234;-72
2023/02/13 08:39:11;;;;;;;61.55;37.10;;;;;;;;;;6324120;28;20059;-73
2023/02/13 08:42:12;;;;;;;62.72;38.20;;;;;;;;;;6328052;28;20048;-73
2023/02/13 08:45:15;;;;;;;65.60;38.35;;;;;;;;;;6327885;28;20089;-73
2023/02/13 08:48:17;;;;;;;65.07;38.83;;;;;;;;;;6323181;28;20059;-72
2023/02/13 08:51:19;;;;;;;69.70;38.30;;;;;;;;;;6324789;28;20051;-72
2023/02/13 08:54:20;;;;;;;66.88;39.15;;;;;;;;;;6326619;27;20055;-72
2023/02/13 08:57:22;;;;;;;63.03;37.80;;;;;;;;;;6331029;27;20051;-73
2023/02/13 09:00:25;;;;;;;62.30;36.13;;;;;;;;;;6327952;28;20053;-73
2023/02/13 09:03:29;;;;;;;63.65;38.63;;;;;;;;;;6326693;28;20062;-73
2023/02/13 09:06:30;;;;;;;57.83;36.20;;;;;;;;;;6322176;28;20137;-73
2023/02/13 09:09:32;;;;;;;64.93;37.38;;;;;;;;;;6326253;28;20053;-73
2023/02/13 09:12:34;;;;;;;62.42;36.97;;;;;;;;;;6327196;28;20044;-73
2023/02/13 09:15:40;;;;;;;60.30;37.22;;;;;;;;;;6325171;28;20328;-73
2023/02/13 09:18:41;;;;;;;61.22;37.33;;;;;;;;;;6326182;27;20045;-73
2023/02/13 09:21:43;;;;;;;69.57;40.25;;;;;;;;;;6325814;28;20105;-73
2023/02/13 09:24:44;;;;;;;63.25;39.92;;;;;;;;;;6324522;27;20582;-73
2023/02/13 09:27:46;;;;;;;64.38;39.50;;;;;;;;;;6326735;28;20052;-74
2023/02/13 09:30:49;;;;;;;68.07;39.08;;;;;;;;;;6324398;28;20184;-74
2023/02/13 09:33:51;;;;;;;62.85;38.97;;;;;;;;;;6321216;28;20340;-73
2023/02/13 09:36:53;;;;;;;66.43;40.03;;;;;;;;;;6324130;28;20268;-74
2023/02/13 09:39:55;;;;;;;68.95;40.13;;;;;;;;;;6324976;28;20052;-73
2023/02/13 09:43:05;;;;;;;64.28;39.70;;;;;;;;;;6323088;28;20105;-73
2023/02/13 09:46:13;;;;;;;63.08;38.53;;;;;;;;;;6324833;28;20368;-72
2023/02/13 09:49:19;;;;;;;65.00;41.08;;;;;;;;;;6329364;28;20070;-73
2023/02/13 09:52:20;;;;;;;63.63;40.03;;;;;;;;;;6327430;28;20074;-73
2023/02/13 09:55:24;;;;;;;60.03;39.10;;;;;;;;;;6324361;28;20055;-72
2023/02/13 09:58:35;;;;;;;59.00;38.42;;;;;;;;;;6326943;28;20058;-73
2023/02/13 10:01:42;;;;;;;61.15;39.42;;;;;;;;;;6323087;27;20060;-72
2023/02/13 10:04:48;;;;;;;60.42;40.15;;;;;;;;;;6323746;28;20086;-73
2023/02/13 10:07:56;;;;;;;61.45;38.72;;;;;;;;;;6327065;28;20056;-75
2023/02/13 10:11:04;;;;;;;56.65;37.22;;;;;;;;;;6329737;28;20048;-73
2023/02/13 10:14:11;;;;;;;57.92;37.40;;;;;;;;;;6326429;28;20093;-74
2023/02/13 10:17:18;;;;;;;58.55;38.53;;;;;;;;;;6322848;28;20098;-74
2023/02/13 10:20:29;;;;;;;54.03;36.92;;;;;;;;;;6325489;28;20051;-71
2023/02/13 10:23:34;;;;;;;57.15;37.10;;;;;;;;;;6325980;28;20048;-72
2023/02/13 10:26:44;;;;;;;54.63;37.70;;;;;;;;;;6327701;28;20043;-71
2023/02/13 10:30:11;;;;;;;53.13;36.35;;;;;;;;;;6322186;28;20056;-72
2023/02/13 10:33:20;;;;;;;52.83;35.65;;;;;;;;;;6320449;28;20052;-72
2023/02/13 10:36:25;;;;;;;52.63;34.53;;;;;;;;;;6319024;28;20052;-72
2023/02/13 10:39:28;;;;;;;54.63;35.20;;;;;;;;;;6323384;28;20051;-72
2023/02/13 10:42:36;;;;;;;47.42;34.13;;;;;;;;;;6324850;28;20051;-72
2023/02/13 10:45:51;;;;;;;46.20;33.67;;;;;;;;;;6328982;27;20047;-72
2023/02/13 10:49:01;;;;;;;46.30;33.47;;;;;;;;;;6323800;27;20056;-73
2023/02/13 10:52:10;;;;;;;45.63;32.88;;;;;;;;;;6326226;28;20089;-72
2023/02/13 10:55:29;;;;;;;44.47;33.13;;;;;;;;;;6325593;28;20047;-72
2023/02/13 10:58:39;;;;;;;49.70;31.98;;;;;;;;;;6319941;28;20115;-72
2023/02/13 11:01:47;;;;;;;52.08;33.20;;;;;;;;;;6323167;27;20051;-72
2023/02/13 11:04:52;;;;;;;43.53;31.60;;;;;;;;;;6322506;28;20120;-72
2023/02/13 11:07:54;;;;;;;41.58;29.67;;;;;;;;;;6326145;28;20093;-72
2023/02/13 11:10:56;;;;;;;41.45;29.42;;;;;;;;;;6323870;28;20052;-72
2023/02/13 11:14:15;;;;;;;44.35;29.15;;;;;;;;;;6323200;28;20060;-72
2023/02/13 11:17:18;;;;;;;47.13;29.02;;;;;;;;;;6322410;28;20277;-72
2023/02/13 11:20:29;;;;;;;40.20;27.13;;;;;;;;;;6324623;28;20070;-72
2023/02/13 11:23:35;;;;;;;37.72;26.92;;;;;;;;;;6322587;28;20044;-72
2023/02/13 11:26:39;;;;;;;39.03;23.27;;;;;;;;;;6324343;28;20043;-72
2023/02/13 11:29:53;;;;;;;36.22;23.88;;;;;;;;;;6321115;28;20053;-72
2023/02/13 11:32:59;;;;;;;36.67;25.75;;;;;;;;;;6328272;28;20063;-73
2023/02/13 11:36:06;;;;;;;35.28;24.60;;;;;;;;;;6328300;27;20044;-73
2023/02/13 11:39:20;;;;;;;39.28;25.42;;;;;;;;;;6329243;27;20278;-75
2023/02/13 11:42:28;;;;;;;41.15;26.17;;;;;;;;;;6330324;28;20159;-74
2023/02/13 11:45:30;;;;;;;39.28;26.52;;;;;;;;;;6327586;28;20059;-73
2023/02/13 11:48:32;;;;;;;36.67;24.98;;;;;;;;;;6324750;28;20052;-73
2023/02/13 11:51:40;;;;;;;44.55;28.42;;;;;;;;;;6325284;28;20040;-73
2023/02/13 11:54:43;;;;;;;40.92;27.92;;;;;;;;;;6322818;27;20408;-73
2023/02/13 11:57:57;;;;;;;40.30;27.80;;;;;;;;;;6326952;28;20052;-73
2023/02/13 12:01:20;;;;;;;34.28;25.95;;;;;;;;;;6327698;28;20082;-73
2023/02/13 12:04:22;;;;;;;38.42;28.27;;;;;;;;;;6329295;28;20044;-73
2023/02/13 12:07:27;;;;;;;36.25;27.17;;;;;;;;;;6331431;28;20044;-73
2023/02/13 12:10:30;;;;;;;34.50;22.77;;;;;;;;;;6328781;28;20342;-73
2023/02/13 12:13:35;;;;;;;31.33;22.85;;;;;;;;;;6324455;28;20236;-73
2023/02/13 12:16:40;;;;;;;31.38;23.65;;;;;;;;;;6326488;28;20044;-73
2023/02/13 12:19:43;;;;;;;37.08;26.80;;;;;;;;;;6327712;28;20063;-73
2023/02/13 12:22:55;;;;;;;35.25;25.27;;;;;;;;;;6326974;28;20350;-73
2023/02/13 12:26:05;;;;;;;36.85;25.40;;;;;;;;;;6327269;27;20044;-73
2023/02/13 12:29:28;;;;;;;34.88;25.20;;;;;;;;;;6324931;28;20092;-74
2023/02/13 12:32:40;;;;;;;35.93;25.43;;;;;;;;;;6323780;28;20134;-73
2023/02/13 12:35:46;;;;;;;35.70;26.52;;;;;;;;;;6326602;28;20470;-73
2023/02/13 12:39:00;;;;;;;36.88;25.30;;;;;;;;;;6326311;28;20352;-73
2023/02/13 12:42:16;;;;;;;32.25;23.92;;;;;;;;;;6327190;28;20097;-73
2023/02/13 12:45:27;;;;;;;33.03;23.63;;;;;;;;;;6326024;28;20040;-73
2023/02/13 12:48:35;;;;;;;34.92;24.60;;;;;;;;;;6323750;28;20056;-73
2023/02/13 12:51:45;;;;;;;36.15;24.70;;;;;;;;;;6320740;28;20060;-73
2023/02/13 12:54:56;;;;;;;36.25;23.83;;;;;;;;;;6328628;27;20323;-73
2023/02/13 12:58:08;;;;;;;33.83;23.50;;;;;;;;;;6327132;28;20059;-73
2023/02/13 13:01:17;;;;;;;32.80;21.65;;;;;;;;;;6325532;28;20102;-74
2023/02/13 13:04:24;;;;;;;28.50;19.50;;;;;;;;;;6330457;28;20055;-71
2023/02/13 13:07:40;;;;;;;32.65;22.08;;;;;;;;;;6325478;28;20052;-72
2023/02/13 13:10:55;;;;;;;36.55;25.30;;;;;;;;;;6326281;27;20060;-73
2023/02/13 13:14:02;;;;;;;33.88;23.85;;;;;;;;;;6328755;27;20059;-72
2023/02/13 13:17:09;;;;;;;35.65;24.48;;;;;;;;;;6325235;28;20631;-74
2023/02/13 13:20:52;;;;;;;31.42;22.35;;;;;;;;;;6326669;28;20075;-73
2023/02/13 13:23:59;;;;;;;30.80;21.52;;;;;;;;;;6229645;28;20401;-73
2023/02/13 13:27:02;;;;;;;27.05;20.08;;;;;;;;;;6230893;28;20049;-73
2023/02/13 13:30:06;;;;;;;31.23;22.85;;;;;;;;;;6230191;28;20092;-74
2023/02/13 13:33:14;;;;;;;34.45;24.13;;;;;;;;;;6231638;28;20050;-72
2023/02/13 13:36:21;;;;;;;31.00;23.25;;;;;;;;;;6229713;28;20045;-72
2023/02/13 13:39:36;;;;;;;34.80;23.73;;;;;;;;;;6230395;28;20041;-72
2023/02/13 13:42:43;;;;;;;29.58;22.80;;;;;;;;;;6228011;28;20071;-73
2023/02/13 13:45:47;;;;;;;30.88;21.23;;;;;;;;;;6228675;28;20054;-73
2023/02/13 13:49:08;;;;;;;31.27;21.45;;;;;;;;;;6224436;28;20609;-73
2023/02/13 13:52:18;;;;;;;28.42;20.05;;;;;;;;;;6225672;28;20070;-72
2023/02/13 13:55:55;;;;;;;28.33;19.10;;;;;;;;;;6304001;28;20044;-73
2023/02/13 13:58:58;;;;;;;30.85;18.23;;;;;;;;;;6322966;28;20359;-72
2023/02/13 14:02:27;;;;;;;23.90;16.48;;;;;;;;;;6324875;28;20055;-73
2023/02/13 14:05:30;;;;;;;25.50;17.50;;;;;;;;;;6327009;28;20043;-73
2023/02/13 14:08:47;;;;;;;;;;;;;;;;;;6322781;28;20085;-72
2023/02/13 14:11:48;;;;;;;27.05;20.17;;;;;;;;;;6326865;28;20146;-73
2023/02/13 14:14:52;;;;;;;31.40;21.40;;;;;;;;;;6324615;27;20993;-72
2023/02/13 14:17:54;;;;;;;34.45;20.75;;;;;;;;;;6324906;28;20126;-73
2023/02/13 14:20:59;;;;;;;32.97;21.65;;;;;;;;;;6324755;28;20058;-73
2023/02/13 14:24:02;;;;;;;33.03;20.77;;;;;;;;;;6320632;28;20056;-73
2023/02/13 14:27:04;;;;;;;30.27;21.88;;;;;;;;;;6324578;28;20043;-72
2023/02/13 14:30:26;;;;;;;29.70;19.83;;;;;;;;;;6323627;28;20063;-73
2023/02/13 14:33:30;;;;;;;25.98;19.38;;;;;;;;;;6324788;28;20048;-73
2023/02/13 14:36:32;;;;;;;;;;;;;;;;;;6320466;28;20040;-73
2023/02/13 14:39:35;;;;;;;29.60;19.88;;;;;;;;;;6318671;28;19987;-73
2023/02/13 14:42:38;;;;;;;27.55;20.10;;;;;;;;;;6324535;28;20332;-73
2023/02/13 14:45:48;;;;;;;27.85;20.35;;;;;;;;;;6323879;27;20145;-73
2023/02/13 14:48:53;;;;;;;26.13;20.10;;;;;;;;;;6324086;28;20052;-73
2023/02/13 14:51:56;;;;;;;30.17;21.08;;;;;;;;;;6324758;28;20102;-73
2023/02/13 14:54:58;;;;;;;;;;;;;;;;;;6323350;28;20102;-73
2023/02/13 14:58:06;;;;;;;30.02;19.88;;;;;;;;;;6324367;28;20200;-73
2023/02/13 15:01:21;;;;;;;26.70;20.20;;;;;;;;;;6322736;27;20056;-73
2023/02/13 15:04:29;;;;;;;30.60;20.65;;;;;;;;;;6324632;28;20063;-73
2023/02/13 15:07:33;;;;;;;32.13;22.42;;;;;;;;;;6327571;27;20052;-72
2023/02/13 15:10:41;;;;;;;35.58;23.85;;;;;;;;;;6328127;28;20064;-72
2023/02/13 15:13:43;;;;;;;34.33;22.92;;;;;;;;;;6327631;28;20051;-73
2023/02/13 15:16:48;;;;;;;36.88;23.13;;;;;;;;;;6326591;28;20363;-73
2023/02/13 15:19:52;;;;;;;34.85;24.33;;;;;;;;;;6328578;28;20052;-73
2023/02/13 15:22:53;;;;;;;;;;;;;;;;;;6331199;27;20048;-73
2023/02/13 15:25:59;;;;;;;36.30;24.75;;;;;;;;;;6329745;27;19924;-72
2023/02/13 15:29:02;;;;;;;38.17;26.25;;;;;;;;;;6329558;27;20055;-72
2023/02/13 15:32:19;;;;;;;36.42;23.60;;;;;;;;;;6325026;28;20052;-72
2023/02/13 15:35:27;;;;;;;34.17;22.88;;;;;;;;;;6328341;28;20064;-72
2023/02/13 15:38:29;;;;;;;33.78;22.40;;;;;;;;;;6327427;28;20063;-72
2023/02/13 15:41:34;;;;;;;36.92;24.42;;;;;;;;;;6328115;28;20046;-72
2023/02/13 15:44:38;;;;;;;37.17;23.52;;;;;;;;;;6327047;28;20047;-72
2023/02/13 15:47:41;;;;;;;35.53;23.48;;;;;;;;;;6327399;28;20036;-72
2023/02/13 15:50:42;;;;;;;41.70;24.10;;;;;;;;;;6323672;28;20048;-72
2023/02/13 15:53:50;;;;;;;35.17;23.25;;;;;;;;;;6326296;28;20268;-72
2023/02/13 15:56:53;;;;;;;35.35;22.77;;;;;;;;;;6326635;28;20055;-72
2023/02/13 15:59:56;;;;;;;37.03;22.40;;;;;;;;;;6328698;27;20235;-72
2023/02/13 16:03:01;;;;;;;35.22;23.15;;;;;;;;;;6325344;27;20054;-73
2023/02/13 16:06:05;;;;;;;35.80;22.98;;;;;;;;;;6330167;28;20044;-72
2023/02/13 16:09:06;;;;;;;38.17;22.98;;;;;;;;;;6321850;28;20407;-72
2023/02/13 16:12:18;;;;;;;37.53;23.15;;;;;;;;;;6324698;28;20052;-73
2023/02/13 16:15:21;;;;;;;37.13;23.95;;;;;;;;;;6328161;27;20048;-72
2023/02/13 16:18:25;;;;;;;37.67;22.58;;;;;;;;;;6324915;28;20161;-72
2023/02/13 16:21:30;;;;;;;38.15;22.98;;;;;;;;;;6328515;28;20354;-72
2023/02/13 16:24:32;;;;;;;41.80;23.77;;;;;;;;;;6327363;27;20051;-73
2023/02/13 16:27:34;;;;;;;40.22;24.00;;;;;;;;;;6328165;28;20044;-72
2023/02/13 16:30:37;;;;;;;39.55;23.27;;;;;;;;;;6327507;28;20228;-72
2023/02/13 16:33:41;;;;;;;38.58;24.15;;;;;;;;;;6322646;27;20135;-72
2023/02/13 16:36:42;;;;;;;;;;;;;;;;;;6327030;28;20059;-73
2023/02/13 16:39:44;;;;;;;39.17;23.27;;;;;;;;;;6327613;28;20386;-72
2023/02/13 16:42:46;;;;;;;38.78;23.10;;;;;;;;;;6325832;27;20048;-73
2023/02/13 16:45:47;;;;;;;40.13;23.67;;;;;;;;;;6325252;28;20052;-73
2023/02/13 16:49:02;;;;;;;43.42;25.27;;;;;;;;;;6327004;28;20097;-72
2023/02/13 16:52:11;;;;;;;42.55;25.23;;;;;;;;;;6326025;28;20048;-73
2023/02/13 16:55:15;;;;;;;47.00;26.30;;;;;;;;;;6325732;28;20048;-73
2023/02/13 16:58:17;;;;;;;44.47;26.58;;;;;;;;;;6324564;28;20312;-73
2023/02/13 17:01:19;;;;;;;55.17;29.55;;;;;;;;;;6326544;28;20323;-73
2023/02/13 17:04:24;;;;;;;47.22;27.40;;;;;;;;;;6325660;28;20056;-73
2023/02/13 17:07:27;;;;;;;43.28;26.77;;;;;;;;;;6325344;28;20047;-72
2023/02/13 17:10:32;;;;;;;47.67;28.75;;;;;;;;;;6323761;28;20203;-72
2023/02/13 17:13:34;;;;;;;55.63;29.92;;;;;;;;;;6326709;28;20285;-73
2023/02/13 17:16:35;;;;;;;51.40;30.17;;;;;;;;;;6324269;28;20040;-73
2023/02/13 17:19:39;;;;;;;50.33;29.38;;;;;;;;;;6326436;28;20056;-72
2023/02/13 17:22:42;;;;;;;50.38;29.15;;;;;;;;;;6325828;28;20085;-73
2023/02/13 17:25:45;;;;;;;51.38;31.17;;;;;;;;;;6326280;28;20105;-73
2023/02/13 17:28:46;;;;;;;49.58;29.17;;;;;;;;;;6324639;28;20354;-72
2023/02/13 17:31:50;;;;;;;52.67;30.60;;;;;;;;;;6325589;27;20049;-72
2023/02/13 17:34:53;;;;;;;56.10;30.85;;;;;;;;;;6323204;28;20285;-73
2023/02/13 17:37:55;;;;;;;56.63;31.93;;;;;;;;;;6327070;28;20052;-72
2023/02/13 17:40:57;;;;;;;52.38;31.30;;;;;;;;;;6325561;27;20106;-72
2023/02/13 17:43:58;;;;;;;52.78;30.58;;;;;;;;;;6326137;28;20058;-73
2023/02/13 17:47:00;;;;;;;54.55;32.03;;;;;;;;;;6324413;28;20262;-72
2023/02/13 17:50:03;;;;;;;51.28;30.38;;;;;;;;;;6322687;27;20045;-72
2023/02/13 17:53:06;;;;;;;51.27;30.60;;;;;;;;;;6322474;28;20047;-72
2023/02/13 17:56:08;;;;;;;53.70;31.52;;;;;;;;;;6325245;28;20090;-73
2023/02/13 17:59:10;;;;;;;51.72;30.20;;;;;;;;;;6323772;27;20402;-72
2023/02/13 18:02:13;;;;;;;50.88;30.25;;;;;;;;;;6321772;27;20047;-72
2023/02/13 18:05:18;;;;;;;50.63;30.23;;;;;;;;;;6325529;28;20267;-72
2023/02/13 18:08:19;;;;;;;53.50;30.58;;;;;;;;;;6321723;28;20056;-72
2023/02/13 18:11:21;;;;;;;49.78;30.23;;;;;;;;;;6321994;28;20046;-73
2023/02/13 18:14:23;;;;;;;54.45;30.90;;;;;;;;;;6320182;28;20055;-72
2023/02/13 18:17:24;;;;;;;52.10;30.17;;;;;;;;;;6325286;28;20239;-73
2023/02/13 18:20:28;;;;;;;51.67;32.72;;;;;;;;;;6323986;27;20040;-72
2023/02/13 18:23:29;;;;;;;51.47;30.85;;;;;;;;;;6324299;28;20051;-72
2023/02/13 18:26:31;;;;;;;53.88;30.67;;;;;;;;;;6322815;28;20056;-72
2023/02/13 18:29:35;;;;;;;53.63;32.25;;;;;;;;;;6322998;28;20093;-73
2023/02/13 18:32:36;;;;;;;56.00;33.58;;;;;;;;;;6320901;28;20050;-73
2023/02/13 18:35:40;;;;;;;58.03;33.15;;;;;;;;;;6322119;27;20056;-74
2023/02/13 18:38:42;;;;;;;;;;;;;;;;;;6319829;28;20048;-73
2023/02/13 18:41:44;;;;;;;55.95;32.70;;;;;;;;;;6323507;27;19916;-74
2023/02/13 18:44:45;;;;;;;57.85;32.95;;;;;;;;;;6322670;28;20048;-74
2023/02/13 18:47:47;;;;;;;55.47;32.92;;;;;;;;;;6321761;28;20068;-74
2023/02/13 18:50:52;;;;;;;57.40;32.42;;;;;;;;;;6322144;28;20067;-74
2023/02/13 18:53:54;;;;;;;57.08;32.55;;;;;;;;;;6322239;28;20094;-74
2023/02/13 18:56:55;;;;;;;58.67;33.45;;;;;;;;;;6319575;28;20324;-74